Terminal Aerodrome Forecast
Issued by NWS

Home | Current Version | Previous Version | Text Only | Print | Product List | Glossary On
Versions: 1 2 3 4 5 6 7 8 9 10 11 12 13 14 15 16 17 18 19 20 21 22
000
FTUS44 KLIX 190120 AAA
TAFMSY
TAF AMD
KMSY 190120Z 1901/1924 15008KT P6SM BKN010 BKN015 OVC029
     FM190230 15007KT 4SM BR VCSH OVC008
     FM190700 16006KT 1 1/2SM BR VCSH OVC004
      TEMPO 1911/1914 1/2SM FG VV002
     FM191600 18009KT 3SM -SHRA VCTS OVC015CB
     FM192000 22010KT 6SM -SHRA VCTS OVC035CB=

USA.gov is the U.S. government's official web portal to all federal, state and local government web resources and services.